createdAt,value
2024-04-24T00:00:21.660Z,66.58
2024-04-24T00:01:21.710Z,67.34
2024-04-24T00:02:21.706Z,67.34
2024-04-24T00:03:21.691Z,68.48
2024-04-24T00:04:21.680Z,67.96
2024-04-24T00:05:21.647Z,71.71
2024-04-24T00:06:21.597Z,72.02
2024-04-24T00:07:21.578Z,73.91
2024-04-24T00:08:21.656Z,74.74
2024-04-24T00:09:21.588Z,76.32
2024-04-24T00:10:21.557Z,77.36
2024-04-24T00:11:21.626Z,77.26
2024-04-24T00:12:21.636Z,77.47
2024-04-24T00:13:21.549Z,78.15
2024-04-24T00:14:21.562Z,79.22
2024-04-24T00:15:21.516Z,79.63
2024-04-24T00:16:21.506Z,79.12
2024-04-24T00:17:21.543Z,80.05
2024-04-24T00:18:21.578Z,80.11
2024-04-24T00:19:21.487Z,79.70
2024-04-24T00:20:21.625Z,80.01
2024-04-24T00:21:21.513Z,80.53
2024-04-24T00:22:21.459Z,80.11
2024-04-24T00:23:21.591Z,80.11
2024-04-24T00:24:21.458Z,80.01
2024-04-24T00:25:21.431Z,79.63
2024-04-24T00:26:21.607Z,80.05
2024-04-24T00:27:21.448Z,80.46
2024-04-24T00:28:21.417Z,80.29
2024-04-24T00:29:21.411Z,81.29
2024-04-24T00:30:21.445Z,81.91
2024-04-24T00:31:21.383Z,81.91
2024-04-24T00:32:21.443Z,81.81
2024-04-24T00:33:21.424Z,81.49
2024-04-24T00:34:21.355Z,81.84
2024-04-24T00:35:21.382Z,82.12
2024-04-24T00:36:21.348Z,82.46
2024-04-24T00:37:21.341Z,82.57
2024-04-24T00:38:21.362Z,82.46
2024-04-24T00:39:21.306Z,82.78
2024-04-24T00:40:21.301Z,82.78
2024-04-24T00:41:21.367Z,82.67
2024-04-24T00:42:21.306Z,82.74
2024-04-24T00:43:21.268Z,83.09
2024-04-24T00:44:21.326Z,82.98
2024-04-24T00:45:21.256Z,83.36
2024-04-24T00:46:21.264Z,83.29
2024-04-24T00:47:21.313Z,83.61
2024-04-24T00:48:21.370Z,84.01
2024-04-24T00:49:21.217Z,84.22
2024-04-24T00:50:21.294Z,84.50
2024-04-24T00:51:21.202Z,84.43
2024-04-24T00:52:21.193Z,84.39
2024-04-24T00:53:21.350Z,84.70
2024-04-24T00:54:21.167Z,84.50
2024-04-24T00:55:21.167Z,84.81
2024-04-24T00:56:21.200Z,84.91
2024-04-24T00:57:21.140Z,85.22
2024-04-24T00:58:21.128Z,84.29
2024-04-24T00:59:21.170Z,84.39
2024-04-24T01:00:21.125Z,85.02
2024-04-24T01:01:21.102Z,85.02
2024-04-24T01:02:21.205Z,85.32
2024-04-24T01:03:21.171Z,85.22
2024-04-24T01:04:21.143Z,85.22
2024-04-24T01:05:21.221Z,85.02
2024-04-24T01:06:21.061Z,85.32
2024-04-24T01:07:21.048Z,85.11
2024-04-24T01:08:21.132Z,85.32
2024-04-24T01:09:21.053Z,85.42
2024-04-24T01:10:21.033Z,85.53
2024-04-24T01:11:21.133Z,84.81
2024-04-24T01:12:21.003Z,85.11
2024-04-24T01:13:20.998Z,85.11
2024-04-24T01:14:21.106Z,85.53
2024-04-24T01:15:20.984Z,85.84
2024-04-24T01:16:20.980Z,86.05
2024-04-24T01:17:21.029Z,86.09
2024-04-24T01:18:21.170Z,85.74
2024-04-24T01:19:20.974Z,85.57
2024-04-24T01:20:21.241Z,86.29
2024-04-24T01:21:53.247Z,86.15
2024-04-24T01:22:20.911Z,86.15
2024-04-24T01:23:20.959Z,85.74
2024-04-24T01:24:20.897Z,85.88
2024-04-24T01:25:20.887Z,85.74
2024-04-24T01:26:20.958Z,85.74
2024-04-24T01:27:20.871Z,85.74
2024-04-24T01:28:20.871Z,86.15
2024-04-24T01:29:20.880Z,86.15
2024-04-24T01:30:20.863Z,86.25
2024-04-24T01:31:20.843Z,85.99
2024-04-24T01:32:20.952Z,85.78
2024-04-24T01:33:20.849Z,85.57
2024-04-24T01:34:20.819Z,85.47
2024-04-24T01:35:20.912Z,85.68
2024-04-24T01:36:20.803Z,85.32
2024-04-24T01:37:20.803Z,85.84
2024-04-24T01:38:20.855Z,85.63
2024-04-24T01:39:20.773Z,85.47
2024-04-24T01:40:20.756Z,85.68
2024-04-24T01:41:20.807Z,85.57
2024-04-24T01:42:20.902Z,85.63
2024-04-24T01:43:20.739Z,85.53
2024-04-24T01:44:20.801Z,85.53
2024-04-24T01:45:20.729Z,85.36
2024-04-24T01:46:20.723Z,85.63
2024-04-24T01:47:20.786Z,85.57
2024-04-24T01:48:20.781Z,85.36
2024-04-24T01:49:20.676Z,85.53
2024-04-24T01:50:20.796Z,86.60
2024-04-24T01:51:20.678Z,85.94
2024-04-24T01:52:20.670Z,86.09
2024-04-24T01:53:20.672Z,85.94
2024-04-24T01:54:20.632Z,85.63
2024-04-24T01:55:20.626Z,85.94
2024-04-24T01:56:20.733Z,86.46
2024-04-24T01:57:20.612Z,86.46
2024-04-24T01:58:20.601Z,86.36
2024-04-24T01:59:20.619Z,86.60
2024-04-24T02:00:20.592Z,86.46
2024-04-24T02:01:20.596Z,86.81
2024-04-24T02:02:20.605Z,86.25
2024-04-24T02:03:20.557Z,86.36
2024-04-24T02:04:20.574Z,86.40
2024-04-24T02:05:20.795Z,86.25
2024-04-24T02:06:20.525Z,86.36
2024-04-24T02:07:20.511Z,85.88
2024-04-24T02:08:20.543Z,85.74
2024-04-24T02:09:20.498Z,85.99
2024-04-24T02:10:20.509Z,86.05
2024-04-24T02:11:20.607Z,86.46
2024-04-24T02:12:20.532Z,86.67
2024-04-24T02:13:20.460Z,86.36
2024-04-24T02:14:20.511Z,85.99
2024-04-24T02:15:20.460Z,85.68
2024-04-24T02:16:20.443Z,86.46
2024-04-24T02:17:20.664Z,86.57
2024-04-24T02:18:20.556Z,86.60
2024-04-24T02:19:20.431Z,86.91
2024-04-24T02:20:21.294Z,87.23
2024-04-24T02:21:20.383Z,87.12
2024-04-24T02:22:20.380Z,87.49
2024-04-24T02:23:20.615Z,87.23
2024-04-24T02:24:20.361Z,87.23
2024-04-24T02:25:20.366Z,87.95
2024-04-24T02:26:20.483Z,87.74
2024-04-24T02:27:20.334Z,87.95
2024-04-24T02:28:20.332Z,87.85
2024-04-24T02:29:20.364Z,88.06
2024-04-24T02:30:20.301Z,88.36
2024-04-24T02:31:20.296Z,87.74
2024-04-24T02:32:20.381Z,88.46
2024-04-24T02:33:20.373Z,88.16
2024-04-24T02:34:20.264Z,88.57
2024-04-24T02:35:20.274Z,87.88
2024-04-24T02:36:20.248Z,89.03
2024-04-24T02:37:20.242Z,89.13
2024-04-24T02:38:20.427Z,89.69
2024-04-24T02:39:20.222Z,89.58
2024-04-24T02:40:20.215Z,90.41
2024-04-24T02:41:20.260Z,90.77
2024-04-24T02:42:20.220Z,91.60
2024-04-24T02:43:20.199Z,90.97
2024-04-24T02:44:20.217Z,91.60
2024-04-24T02:45:20.169Z,91.80
2024-04-24T02:46:20.160Z,91.74
2024-04-24T02:47:20.312Z,91.80
2024-04-24T02:48:20.205Z,91.80
2024-04-24T02:49:20.131Z,91.70
2024-04-24T02:50:20.247Z,91.45
2024-04-24T02:51:20.119Z,91.66
2024-04-24T02:52:20.143Z,90.68
2024-04-24T02:53:20.171Z,90.00
2024-04-24T02:54:20.140Z,89.79
2024-04-24T02:55:20.075Z,90.31
2024-04-24T02:56:20.160Z,89.48
2024-04-24T02:57:20.083Z,89.17
2024-04-24T02:58:20.053Z,88.55
2024-04-24T02:59:20.225Z,88.55
2024-04-24T03:00:20.037Z,89.38
2024-04-24T03:01:20.057Z,89.07
2024-04-24T03:02:20.136Z,88.96
2024-04-24T03:03:20.020Z,89.28
2024-04-24T03:04:20.000Z,87.93
2024-04-24T03:05:20.094Z,87.93
2024-04-24T03:06:19.997Z,88.13
2024-04-24T03:07:19.969Z,88.24
2024-04-24T03:08:20.051Z,87.30
2024-04-24T03:09:19.945Z,87.35
2024-04-24T03:10:19.966Z,88.18
2024-04-24T03:11:20.018Z,88.55
2024-04-24T03:12:19.929Z,88.65
2024-04-24T03:13:19.905Z,88.24
2024-04-24T03:14:19.992Z,88.03
2024-04-24T03:15:19.904Z,87.99
2024-04-24T03:16:19.886Z,88.24
2024-04-24T03:17:19.968Z,86.62
2024-04-24T03:18:19.991Z,87.20
2024-04-24T03:19:19.866Z,87.30
2024-04-24T03:20:19.902Z,87.51
2024-04-24T03:21:19.849Z,87.51
2024-04-24T03:22:19.834Z,87.62
2024-04-24T03:23:19.891Z,87.82
2024-04-24T03:24:19.831Z,87.10
2024-04-24T03:25:19.869Z,87.20
2024-04-24T03:26:19.881Z,87.20
2024-04-24T03:27:19.791Z,87.10
2024-04-24T03:28:19.777Z,87.41
2024-04-24T03:29:21.715Z,87.30
2024-04-24T03:30:20.760Z,86.85
2024-04-24T03:31:19.738Z,86.96
2024-04-24T03:32:19.797Z,87.06
2024-04-24T03:33:19.843Z,86.96
2024-04-24T03:34:19.744Z,87.27
2024-04-24T03:35:19.805Z,87.10
2024-04-24T03:36:19.706Z,87.37
2024-04-24T03:37:19.699Z,87.16
2024-04-24T03:38:19.746Z,87.27
2024-04-24T03:39:19.691Z,87.47
2024-04-24T03:40:19.678Z,87.16
2024-04-24T03:41:19.804Z,86.81
2024-04-24T03:42:19.650Z,85.82
2024-04-24T03:43:19.650Z,85.92
2024-04-24T03:44:19.697Z,85.92
2024-04-24T03:45:19.641Z,85.82
2024-04-24T03:46:19.610Z,85.88
2024-04-24T03:47:19.728Z,86.33
2024-04-24T03:48:19.718Z,86.33
2024-04-24T03:49:19.599Z,86.19
2024-04-24T03:50:19.646Z,86.29
2024-04-24T03:51:19.575Z,86.40
2024-04-24T03:52:19.739Z,86.19
2024-04-24T03:53:19.629Z,86.19
2024-04-24T03:54:19.549Z,85.78
2024-04-24T03:55:19.533Z,85.68
2024-04-24T03:56:19.609Z,85.57
2024-04-24T03:57:19.525Z,84.88
2024-04-24T03:58:19.504Z,85.50
2024-04-24T03:59:19.581Z,85.92
2024-04-24T04:00:19.486Z,85.71
2024-04-24T04:01:19.508Z,86.13
2024-04-24T04:02:19.582Z,85.71
2024-04-24T04:03:19.501Z,85.86
2024-04-24T04:04:19.570Z,85.44
2024-04-24T04:05:19.486Z,85.96
2024-04-24T04:06:19.465Z,86.79
2024-04-24T04:07:19.432Z,86.37
2024-04-24T04:08:19.491Z,86.10
2024-04-24T04:09:19.448Z,86.52
2024-04-24T04:10:19.421Z,87.14
2024-04-24T04:11:19.429Z,87.35
2024-04-24T04:12:19.440Z,86.93
2024-04-24T04:13:19.388Z,87.24
2024-04-24T04:14:19.462Z,87.35
2024-04-24T04:15:19.393Z,87.04
2024-04-24T04:16:19.362Z,87.35
2024-04-24T04:17:19.411Z,86.93
2024-04-24T04:18:19.393Z,87.45
2024-04-24T04:19:19.326Z,87.51
2024-04-24T04:20:19.424Z,87.30
2024-04-24T04:21:19.320Z,87.20
2024-04-24T04:22:19.289Z,86.96
2024-04-24T04:23:19.337Z,87.10
2024-04-24T04:24:19.285Z,87.20
2024-04-24T04:25:19.291Z,87.35
2024-04-24T04:26:19.315Z,87.45
2024-04-24T04:27:20.246Z,88.07
2024-04-24T04:28:19.249Z,87.55
2024-04-24T04:29:19.309Z,87.55
2024-04-24T04:30:19.241Z,87.24
2024-04-24T04:31:19.206Z,87.24
2024-04-24T04:32:19.303Z,87.97
2024-04-24T04:33:19.342Z,87.14
2024-04-24T04:34:19.197Z,88.24
2024-04-24T04:35:19.217Z,87.93
2024-04-24T04:36:19.174Z,87.30
2024-04-24T04:37:19.166Z,87.93
2024-04-24T04:38:19.349Z,87.41
2024-04-24T04:39:19.476Z,87.51
2024-04-24T04:40:19.145Z,87.72
2024-04-24T04:41:19.201Z,86.85
2024-04-24T04:42:19.120Z,86.96
2024-04-24T04:43:21.526Z,87.27
2024-04-24T04:44:20.120Z,86.75
2024-04-24T04:45:19.096Z,86.54
2024-04-24T04:46:19.080Z,86.02
2024-04-24T04:47:19.110Z,85.99
2024-04-24T04:48:19.252Z,86.50
2024-04-24T04:49:19.057Z,85.36
2024-04-24T04:50:19.127Z,85.16
2024-04-24T04:51:19.031Z,85.36
2024-04-24T04:52:19.025Z,85.61
2024-04-24T04:53:19.152Z,85.47
2024-04-24T04:54:19.003Z,85.26
2024-04-24T04:55:18.988Z,84.74
2024-04-24T04:56:19.114Z,85.40
2024-04-24T04:57:18.992Z,85.40
2024-04-24T04:58:19.026Z,85.36
2024-04-24T04:59:18.982Z,85.47
2024-04-24T05:00:18.939Z,85.68
2024-04-24T05:01:18.935Z,85.26
2024-04-24T05:02:19.016Z,85.26
2024-04-24T05:03:19.064Z,85.05
2024-04-24T05:04:18.937Z,84.84
2024-04-24T05:05:19.009Z,84.60
2024-04-24T05:06:18.896Z,84.74
2024-04-24T05:07:18.898Z,84.12
2024-04-24T05:08:19.010Z,84.22
2024-04-24T05:09:18.864Z,84.39
2024-04-24T05:10:18.854Z,83.36
2024-04-24T05:11:18.998Z,83.15
2024-04-24T05:12:18.872Z,83.61
2024-04-24T05:13:18.829Z,83.67
2024-04-24T05:14:18.829Z,84.08
2024-04-24T05:15:18.810Z,84.19
2024-04-24T05:16:18.841Z,84.81
2024-04-24T05:17:18.837Z,84.22
2024-04-24T05:18:21.043Z,84.22
2024-04-24T05:19:18.795Z,84.60
2024-04-24T05:20:18.820Z,84.39
2024-04-24T05:21:18.795Z,84.81
2024-04-24T05:22:18.743Z,84.81
2024-04-24T05:23:18.758Z,84.95
2024-04-24T05:24:18.732Z,84.08
2024-04-24T05:25:18.790Z,84.19
2024-04-24T05:26:18.786Z,83.87
2024-04-24T05:27:18.706Z,84.08
2024-04-24T05:28:18.687Z,82.74
2024-04-24T05:29:18.695Z,82.36
2024-04-24T05:30:18.766Z,82.95
2024-04-24T05:31:18.689Z,83.25
2024-04-24T05:32:18.666Z,83.40
2024-04-24T05:33:18.719Z,83.46
2024-04-24T05:34:18.636Z,83.56
2024-04-24T05:35:18.706Z,82.95
2024-04-24T05:36:18.646Z,82.74
2024-04-24T05:37:18.617Z,82.64
2024-04-24T05:38:18.681Z,81.70
2024-04-24T05:39:18.588Z,81.81
2024-04-24T05:40:18.590Z,81.81
2024-04-24T05:41:18.704Z,81.70
2024-04-24T05:42:18.558Z,81.70
2024-04-24T05:43:18.559Z,81.56
2024-04-24T05:44:18.582Z,80.88
2024-04-24T05:45:18.893Z,80.84
2024-04-24T05:46:18.543Z,81.56
2024-04-24T05:47:18.622Z,80.53
2024-04-24T05:48:18.563Z,80.63
2024-04-24T05:49:18.517Z,80.29
2024-04-24T05:50:18.512Z,80.18
2024-04-24T05:51:18.495Z,80.18
2024-04-24T05:52:18.483Z,79.42
2024-04-24T05:53:18.492Z,79.52
2024-04-24T05:54:18.695Z,79.22
2024-04-24T05:55:18.445Z,79.28
2024-04-24T05:56:18.526Z,79.49
2024-04-24T05:57:18.427Z,78.42
2024-04-24T05:58:18.453Z,78.83
2024-04-24T05:59:18.644Z,77.91
2024-04-24T06:00:18.408Z,76.35
2024-04-24T06:01:18.466Z,76.87
2024-04-24T06:02:18.401Z,77.11
2024-04-24T06:03:18.439Z,76.70
2024-04-24T06:04:18.378Z,77.32
2024-04-24T06:05:18.424Z,76.81
2024-04-24T06:06:18.371Z,76.84
2024-04-24T06:07:18.341Z,76.05
2024-04-24T06:08:18.430Z,76.46
2024-04-24T06:09:18.324Z,76.67
2024-04-24T06:10:18.310Z,76.94
2024-04-24T06:11:18.389Z,77.08
2024-04-24T06:12:18.320Z,76.56
2024-04-24T06:13:18.290Z,75.22
2024-04-24T06:14:18.344Z,74.81
2024-04-24T06:15:18.265Z,74.43
2024-04-24T06:16:18.255Z,74.84
2024-04-24T06:17:18.372Z,75.26
2024-04-24T06:18:18.295Z,75.36
2024-04-24T06:19:18.244Z,75.36
2024-04-24T06:20:18.305Z,75.57
2024-04-24T06:21:18.205Z,74.74
2024-04-24T06:22:18.204Z,74.43
2024-04-24T06:23:18.232Z,74.67
2024-04-24T06:24:18.167Z,75.81
2024-04-24T06:25:18.170Z,76.22
2024-04-24T06:26:18.416Z,77.15
2024-04-24T06:27:18.160Z,76.43
2024-04-24T06:28:18.140Z,76.43
2024-04-24T06:29:18.152Z,76.84
2024-04-24T06:30:18.112Z,77.05
2024-04-24T06:31:18.169Z,76.88
2024-04-24T06:32:18.200Z,78.12
2024-04-24T06:33:18.220Z,78.12
2024-04-24T06:34:18.073Z,77.87
2024-04-24T06:35:18.139Z,77.77
2024-04-24T06:36:18.081Z,76.81
2024-04-24T06:37:18.049Z,77.50
2024-04-24T06:38:18.085Z,76.36
2024-04-24T06:39:18.036Z,75.43
2024-04-24T06:40:18.031Z,75.43
2024-04-24T06:41:18.063Z,75.22
2024-04-24T06:42:18.010Z,74.88
2024-04-24T06:43:18.016Z,75.46
2024-04-24T06:44:18.030Z,74.36
2024-04-24T06:45:18.003Z,74.63
2024-04-24T06:46:17.992Z,73.81
2024-04-24T06:47:18.007Z,73.43
2024-04-24T06:48:18.038Z,74.26
2024-04-24T06:49:17.942Z,74.02
2024-04-24T06:50:18.108Z,73.71
2024-04-24T06:51:20.318Z,73.77
2024-04-24T06:52:17.914Z,74.08
2024-04-24T06:53:17.957Z,73.67
2024-04-24T06:54:18.130Z,74.50
2024-04-24T06:55:17.901Z,74.36
2024-04-24T06:56:18.927Z,73.85
2024-04-24T06:57:17.876Z,73.02
2024-04-24T06:58:17.864Z,72.71
2024-04-24T06:59:17.926Z,72.78
2024-04-24T07:00:17.860Z,72.78
2024-04-24T07:01:17.903Z,71.30
2024-04-24T07:02:18.696Z,70.57
2024-04-24T07:03:17.913Z,71.81
2024-04-24T07:04:17.851Z,71.30
2024-04-24T07:05:17.813Z,72.54
2024-04-24T07:06:17.799Z,70.89
2024-04-24T07:07:19.589Z,72.19
2024-04-24T07:08:18.863Z,71.99
2024-04-24T07:09:17.801Z,70.54
2024-04-24T07:10:17.755Z,72.19
2024-04-24T07:11:17.814Z,70.75
2024-04-24T07:12:17.728Z,71.26
2024-04-24T07:13:17.744Z,70.86
2024-04-24T07:14:17.741Z,71.20
2024-04-24T07:15:17.724Z,71.58
2024-04-24T07:16:17.697Z,71.09
2024-04-24T07:17:17.809Z,71.71
2024-04-24T07:18:17.873Z,72.06
2024-04-24T07:19:17.666Z,72.47
2024-04-24T07:20:17.704Z,72.78
2024-04-24T07:21:50.127Z,73.60
2024-04-24T07:22:17.656Z,73.74
2024-04-24T07:23:17.656Z,74.77
2024-04-24T07:24:17.641Z,75.91
2024-04-24T07:25:17.628Z,76.77
2024-04-24T07:26:18.287Z,77.29
2024-04-24T07:27:18.983Z,77.91
2024-04-24T07:28:18.596Z,78.42
2024-04-24T07:29:17.681Z,78.42
2024-04-24T07:30:17.563Z,78.84
2024-04-24T07:31:17.551Z,79.15
2024-04-24T07:32:17.620Z,82.01
2024-04-24T07:33:17.610Z,82.53
2024-04-24T07:34:17.580Z,82.43
2024-04-24T07:35:17.629Z,82.53
2024-04-24T07:36:17.684Z,82.01
2024-04-24T07:37:17.512Z,82.15
2024-04-24T07:38:17.527Z,83.36
2024-04-24T07:39:17.479Z,83.36
2024-04-24T07:40:17.473Z,83.22
2024-04-24T07:41:17.725Z,82.08
2024-04-24T07:42:17.453Z,82.29
2024-04-24T07:43:17.497Z,82.84
2024-04-24T07:44:17.523Z,82.95
2024-04-24T07:45:17.441Z,83.11
2024-04-24T07:46:17.432Z,83.53
2024-04-24T07:47:17.505Z,82.56
2024-04-24T07:48:17.458Z,81.70
2024-04-24T07:49:17.391Z,81.49
2024-04-24T07:50:17.439Z,79.94
2024-04-24T07:51:17.400Z,79.94
2024-04-24T07:52:17.390Z,80.52
2024-04-24T07:53:17.374Z,79.73
2024-04-24T07:54:17.353Z,80.04
2024-04-24T07:55:17.349Z,79.73
2024-04-24T07:56:17.387Z,80.32
2024-04-24T07:57:17.326Z,80.11
2024-04-24T07:58:17.336Z,80.21
2024-04-24T07:59:17.421Z,80.46
2024-04-24T08:00:17.339Z,80.52
2024-04-24T08:01:17.303Z,80.32
2024-04-24T08:02:17.355Z,79.45
2024-04-24T08:03:50.708Z,78.11
2024-04-24T08:04:17.342Z,77.91
2024-04-24T08:05:17.277Z,76.84
2024-04-24T08:06:17.236Z,76.63
2024-04-24T08:07:17.230Z,76.59
2024-04-24T08:08:17.239Z,76.08
2024-04-24T08:09:17.238Z,75.43
2024-04-24T08:10:17.198Z,74.19
2024-04-24T08:11:17.272Z,74.29
2024-04-24T08:12:17.244Z,74.50
2024-04-24T08:13:17.172Z,73.36
2024-04-24T08:14:17.275Z,74.26
2024-04-24T08:15:17.150Z,74.91
2024-04-24T08:16:17.249Z,76.35
2024-04-24T08:17:17.164Z,76.63
2024-04-24T08:18:17.161Z,76.11
2024-04-24T08:19:17.131Z,74.57
2024-04-24T08:20:17.158Z,72.85
2024-04-24T08:21:17.121Z,73.78
2024-04-24T08:22:17.081Z,72.88
2024-04-24T08:23:21.582Z,73.50
2024-04-24T08:24:18.072Z,74.26
2024-04-24T08:25:17.089Z,75.09
2024-04-24T08:26:17.129Z,74.05
2024-04-24T08:27:17.050Z,73.85
2024-04-24T08:28:26.624Z,73.98
2024-04-24T08:29:19.157Z,74.29
2024-04-24T08:30:17.007Z,74.08
2024-04-24T08:31:17.021Z,74.19
2024-04-24T08:32:17.058Z,74.50
2024-04-24T08:33:17.103Z,74.46
2024-04-24T08:34:16.983Z,75.09
2024-04-24T08:35:16.997Z,73.64
2024-04-24T08:36:16.973Z,74.26
2024-04-24T08:37:16.964Z,75.05
2024-04-24T08:38:16.957Z,74.15
2024-04-24T08:39:16.938Z,74.12
2024-04-24T08:40:16.936Z,74.22
2024-04-24T08:41:17.161Z,73.85
2024-04-24T08:42:16.915Z,73.81
2024-04-24T08:43:16.898Z,74.12
2024-04-24T08:44:16.914Z,74.12
2024-04-24T08:45:16.885Z,74.12
2024-04-24T08:46:16.878Z,74.15
2024-04-24T08:47:17.081Z,73.30
2024-04-24T08:48:17.425Z,73.64
2024-04-24T08:49:17.917Z,74.02
2024-04-24T08:50:16.865Z,74.84
2024-04-24T08:51:16.856Z,74.57
2024-04-24T08:52:16.842Z,73.98
2024-04-24T08:53:16.834Z,73.68
2024-04-24T08:54:16.795Z,74.91
2024-04-24T08:55:16.804Z,75.74
2024-04-24T08:56:16.936Z,76.15
2024-04-24T08:57:16.832Z,76.42
2024-04-24T08:58:16.822Z,76.21
2024-04-24T08:59:16.835Z,76.73
2024-04-24T09:00:16.788Z,77.15
2024-04-24T09:01:16.888Z,76.53
2024-04-24T09:02:17.831Z,76.49
2024-04-24T09:03:17.799Z,76.39
2024-04-24T09:04:16.843Z,76.08
2024-04-24T09:05:16.768Z,75.36
2024-04-24T09:06:16.692Z,74.74
2024-04-24T09:07:16.756Z,73.91
2024-04-24T09:08:16.751Z,73.60
2024-04-24T09:09:16.678Z,74.67
2024-04-24T09:10:16.764Z,74.57
2024-04-24T09:11:16.687Z,74.77
2024-04-24T09:12:16.698Z,74.29
2024-04-24T09:13:16.679Z,74.81
2024-04-24T09:14:16.676Z,75.53
2024-04-24T09:15:16.635Z,75.01
2024-04-24T09:16:16.620Z,76.70
2024-04-24T09:17:16.666Z,77.81
2024-04-24T09:18:16.660Z,78.05
2024-04-24T09:19:18.351Z,79.08
2024-04-24T09:20:16.623Z,79.49
2024-04-24T09:21:16.566Z,79.49
2024-04-24T09:22:16.559Z,80.26
2024-04-24T09:23:16.567Z,80.88
2024-04-24T09:24:16.551Z,80.46
2024-04-24T09:25:16.546Z,81.84
2024-04-24T09:26:16.547Z,82.26
2024-04-24T09:27:16.525Z,82.26
2024-04-24T09:28:16.521Z,82.36
2024-04-24T09:29:16.572Z,82.12
2024-04-24T09:30:16.488Z,82.12
2024-04-24T09:31:17.850Z,81.98
2024-04-24T09:32:17.560Z,82.18
2024-04-24T09:33:16.694Z,81.32
2024-04-24T09:34:16.454Z,81.52
2024-04-24T09:35:16.454Z,80.42
2024-04-24T09:36:16.427Z,79.90
2024-04-24T09:37:17.904Z,80.21
2024-04-24T09:38:16.584Z,80.00
2024-04-24T09:39:16.401Z,79.66
2024-04-24T09:40:16.392Z,79.45
2024-04-24T09:41:16.507Z,78.11
2024-04-24T09:42:16.403Z,77.66
2024-04-24T09:43:17.512Z,77.28
2024-04-24T09:44:16.739Z,76.63
2024-04-24T09:45:16.343Z,76.42
2024-04-24T09:46:16.360Z,76.21
2024-04-24T09:47:16.415Z,76.70
2024-04-24T09:48:16.403Z,76.35
2024-04-24T09:49:16.454Z,76.15
2024-04-24T09:50:16.364Z,75.22
2024-04-24T09:51:16.290Z,74.77
2024-04-24T09:52:16.300Z,74.05
2024-04-24T09:53:16.295Z,74.02
2024-04-24T09:54:16.268Z,73.47
2024-04-24T09:55:17.379Z,73.61
2024-04-24T09:56:16.360Z,73.78
2024-04-24T09:57:16.249Z,72.75
2024-04-24T09:58:16.225Z,72.92
2024-04-24T09:59:16.297Z,72.27
2024-04-24T10:00:16.268Z,70.62
2024-04-24T10:01:17.308Z,70.14
2024-04-24T10:02:16.218Z,71.37
2024-04-24T10:03:16.382Z,71.37
2024-04-24T10:04:16.221Z,70.45
2024-04-24T10:05:16.277Z,71.58
2024-04-24T10:06:16.229Z,72.30
2024-04-24T10:07:17.461Z,74.43
2024-04-24T10:08:17.151Z,71.86
2024-04-24T10:09:16.131Z,71.86
2024-04-24T10:10:16.139Z,71.04
2024-04-24T10:11:16.199Z,72.17
2024-04-24T10:12:16.179Z,72.38
2024-04-24T10:13:16.087Z,73.02
2024-04-24T10:14:16.148Z,73.85
2024-04-24T10:15:16.095Z,73.33
2024-04-24T10:16:16.058Z,72.96
2024-04-24T10:17:16.141Z,73.71
2024-04-24T10:18:16.114Z,73.68
2024-04-24T10:19:16.096Z,75.60
2024-04-24T10:20:22.407Z,77.56
2024-04-24T10:21:17.061Z,78.59
2024-04-24T10:22:16.093Z,79.72
2024-04-24T10:23:16.153Z,79.79
2024-04-24T10:24:16.105Z,79.34
2024-04-24T10:25:15.990Z,78.11
2024-04-24T10:26:16.008Z,76.83
2024-04-24T10:27:15.959Z,77.66
2024-04-24T10:28:15.952Z,78.34
2024-04-24T10:29:15.978Z,77.86
2024-04-24T10:30:15.980Z,78.69
2024-04-24T10:31:15.947Z,78.83
2024-04-24T10:32:15.967Z,78.79
2024-04-24T10:33:16.165Z,79.65
2024-04-24T10:34:15.910Z,79.51
2024-04-24T10:35:15.944Z,78.65
2024-04-24T10:36:15.883Z,78.65
2024-04-24T10:37:15.873Z,78.96
2024-04-24T10:38:15.864Z,79.64
2024-04-24T10:39:15.873Z,79.03
2024-04-24T10:40:16.414Z,79.19
2024-04-24T10:41:16.970Z,78.58
2024-04-24T10:42:15.828Z,78.58
2024-04-24T10:43:15.836Z,78.06
2024-04-24T10:44:15.883Z,76.79
2024-04-24T10:45:15.793Z,76.79
2024-04-24T10:46:15.802Z,75.39
2024-04-24T10:47:15.800Z,76.31
2024-04-24T10:48:15.852Z,76.73
2024-04-24T10:49:15.826Z,78.41
2024-04-24T10:50:15.837Z,78.41
2024-04-24T10:51:15.743Z,78.75
2024-04-24T10:52:15.723Z,79.06
2024-04-24T10:53:16.069Z,79.16
2024-04-24T10:54:15.765Z,78.65
2024-04-24T10:55:15.700Z,79.30
2024-04-24T10:56:15.697Z,79.00
2024-04-24T10:57:15.851Z,78.69
2024-04-24T10:58:15.676Z,79.37
2024-04-24T10:59:15.697Z,79.58
2024-04-24T11:00:15.645Z,79.88
2024-04-24T11:01:16.636Z,79.47
2024-04-24T11:02:15.711Z,80.16
2024-04-24T11:03:15.762Z,81.15
2024-04-24T11:04:15.687Z,80.98
2024-04-24T11:05:15.628Z,81.39
2024-04-24T11:06:15.680Z,81.05
2024-04-24T11:07:21.336Z,79.95
2024-04-24T11:08:20.551Z,81.87
2024-04-24T11:09:15.574Z,81.62
2024-04-24T11:10:15.560Z,79.84
2024-04-24T11:11:15.718Z,80.21
2024-04-24T11:12:15.572Z,78.64
2024-04-24T11:13:15.561Z,77.47
2024-04-24T11:14:15.825Z,78.56
2024-04-24T11:15:15.505Z,76.82
2024-04-24T11:16:15.513Z,76.27
2024-04-24T11:17:15.653Z,75.73
2024-04-24T11:18:15.565Z,77.47
2024-04-24T11:19:15.496Z,76.48
2024-04-24T11:20:15.747Z,77.71
2024-04-24T11:21:15.458Z,78.09
2024-04-24T11:22:15.497Z,77.30
2024-04-24T11:23:15.451Z,76.79
2024-04-24T11:24:15.424Z,76.48
2024-04-24T11:25:15.418Z,76.17
2024-04-24T11:26:15.463Z,75.25
2024-04-24T11:27:15.382Z,75.04
2024-04-24T11:28:15.375Z,76.14
2024-04-24T11:29:15.396Z,75.86
2024-04-24T11:30:15.368Z,75.28
2024-04-24T11:31:15.364Z,74.90
2024-04-24T11:32:15.421Z,74.32
2024-04-24T11:33:15.434Z,73.33
2024-04-24T11:34:15.348Z,70.75
2024-04-24T11:35:15.328Z,71.53
2024-04-24T11:36:15.293Z,69.86
2024-04-24T11:37:15.293Z,69.21
2024-04-24T11:38:15.305Z,68.88
2024-04-24T11:39:15.290Z,66.83
2024-04-24T11:40:15.273Z,67.45
2024-04-24T11:41:15.252Z,68.64
2024-04-24T11:42:15.226Z,67.08
2024-04-24T11:43:15.282Z,66.13
2024-04-24T11:44:15.246Z,66.13
2024-04-24T11:45:16.984Z,65.62
2024-04-24T11:46:15.180Z,64.43
2024-04-24T11:47:15.185Z,63.31
2024-04-24T11:48:15.274Z,62.62
2024-04-24T11:49:15.289Z,63.64
2024-04-24T11:50:15.328Z,64.05
2024-04-24T11:51:15.136Z,65.65
2024-04-24T11:52:15.154Z,65.14
2024-04-24T11:53:15.166Z,64.63
2024-04-24T11:54:15.127Z,63.13
2024-04-24T11:55:15.164Z,63.81
2024-04-24T11:56:15.113Z,64.28
2024-04-24T11:57:15.065Z,62.78
2024-04-24T11:58:15.144Z,65.74
2024-04-24T11:59:15.055Z,65.89
2024-04-24T12:00:15.041Z,66.16
2024-04-24T12:01:15.064Z,64.17
2024-04-24T12:02:15.035Z,61.11
2024-04-24T12:03:15.083Z,61.21
2024-04-24T12:04:15.013Z,62.94
2024-04-24T12:05:15.029Z,60.53
2024-04-24T12:06:15.016Z,60.91
2024-04-24T12:07:14.978Z,59.48
2024-04-24T12:08:15.014Z,60.45
2024-04-24T12:09:14.988Z,62.73
2024-04-24T12:10:15.061Z,61.40
2024-04-24T12:11:15.066Z,61.83
2024-04-24T12:12:14.924Z,62.07
2024-04-24T12:13:14.943Z,63.76
2024-04-24T12:14:14.952Z,63.66
2024-04-24T12:15:14.882Z,64.07
2024-04-24T12:16:14.904Z,64.37
2024-04-24T12:17:14.902Z,64.58
2024-04-24T12:18:14.858Z,62.95
2024-04-24T12:19:14.853Z,64.07
2024-04-24T12:20:14.924Z,63.60
2024-04-24T12:21:14.930Z,64.62
2024-04-24T12:22:14.818Z,65.54
2024-04-24T12:23:14.814Z,64.31
2024-04-24T12:24:14.783Z,63.95
2024-04-24T12:25:14.782Z,61.50
2024-04-24T12:26:14.838Z,60.38
2024-04-24T12:27:14.755Z,59.49
2024-04-24T12:28:14.742Z,60.53
2024-04-24T12:29:14.733Z,60.74
2024-04-24T12:30:14.717Z,59.92
2024-04-24T12:31:14.748Z,61.00
2024-04-24T12:32:14.718Z,62.57
2024-04-24T12:33:14.896Z,63.10
2024-04-24T12:34:15.090Z,63.00
2024-04-24T12:35:14.763Z,63.34
2024-04-24T12:36:14.669Z,63.85
2024-04-24T12:37:14.650Z,63.85
2024-04-24T12:38:14.684Z,64.70
2024-04-24T12:39:14.625Z,65.65
2024-04-24T12:40:14.638Z,67.49
2024-04-24T12:41:14.609Z,67.14
2024-04-24T12:42:14.598Z,67.76
2024-04-24T12:43:14.608Z,68.10
2024-04-24T12:44:14.585Z,69.74
2024-04-24T12:45:14.664Z,70.15
2024-04-24T12:46:14.553Z,69.54
2024-04-24T12:47:14.596Z,70.36
2024-04-24T12:48:14.628Z,71.18
2024-04-24T12:49:14.540Z,71.18
2024-04-24T12:50:14.611Z,71.39
2024-04-24T12:51:14.496Z,72.03
2024-04-24T12:52:14.503Z,72.14